Time;durP1;ratioP1;P1;durP2;ratioP2;P2;SDS_P1;SDS_P2;PMS_P1;PMS_P2;Temp;Humidity;BMP_temperature;BMP_pressure;BME280_temperature;BME280_humidity;BME280_pressure;Samples;Min_cycle;Max_cycle;Signal;HPM_P1;HPM_P2
2023/01/27 00:00:05;;;;;;;;;;;-1.40;99.90;;;;;;5101158;28;19999;-70
2023/01/27 00:02:30;;;;;;;;;;;-1.40;99.90;;;;;;5093726;28;19914;-70
2023/01/27 00:04:56;;;;;;;;;;;-1.40;99.90;;;;;;5093603;28;19920;-71
2023/01/27 00:07:22;;;;;;;;;;;-1.40;99.90;;;;;;5093534;28;20317;-68
2023/01/27 00:09:47;;;;;;;;;;;-1.40;99.90;;;;;;5094024;28;19995;-71
2023/01/27 00:15:02;;;;;;;;;;;-1.40;99.90;;;;;;5104444;28;19919;-70
2023/01/27 00:17:28;;;;;;;;;;;-1.40;99.90;;;;;;5101910;28;19922;-70
2023/01/27 00:19:54;;;;;;;;;;;-1.40;99.90;;;;;;5096801;28;19916;-71
2023/01/27 00:25:04;;;;;;;;;;;-1.40;99.90;;;;;;5106409;28;20309;-70
2023/01/27 00:27:29;;;;;;;;;;;-1.40;99.90;;;;;;5103380;28;19916;-69
2023/01/27 00:29:55;;;;;;;;;;;-1.40;99.90;;;;;;5094007;28;19920;-70
2023/01/27 00:35:06;;;;;;;;;;;-1.40;99.90;;;;;;5073956;28;19918;-70
2023/01/27 00:37:31;;;;;;;;;;;-1.40;99.90;;;;;;5084519;28;20285;-70
2023/01/27 00:39:57;;;;;;;;;;;-1.40;99.90;;;;;;5126616;27;20276;-68
2023/01/27 00:42:22;;;;;;;;;;;-1.40;99.90;;;;;;5094230;28;19951;-71
2023/01/27 00:47:35;;;;;;;;;;;-1.40;99.90;;;;;;5102038;28;19919;-71
2023/01/27 00:50:01;;;;;;;;;;;-1.40;99.90;;;;;;5112661;28;19912;-70
2023/01/27 00:52:26;;;;;;;;;;;-1.50;99.90;;;;;;5112588;28;20294;-70
2023/01/27 00:54:52;;;;;;;;;;;-1.40;99.90;;;;;;5109040;28;19911;-70
2023/01/27 00:57:18;;;;;;;;;;;-1.50;99.90;;;;;;5105875;28;19912;-70
2023/01/27 00:59:43;;;;;;;;;;;-1.40;99.90;;;;;;5110438;28;19999;-68
2023/01/27 01:02:09;;;;;;;;;;;-1.50;99.90;;;;;;5113089;28;19916;-69
2023/01/27 01:04:34;;;;;;;;;;;-1.50;99.90;;;;;;5107570;28;20358;-70
2023/01/27 01:07:00;;;;;;;;;;;-1.50;99.90;;;;;;5094164;28;19913;-68
2023/01/27 01:09:25;;;;;;;;;;;-1.40;99.90;;;;;;5092217;28;19912;-69
2023/01/27 01:11:51;;;;;;;;;;;-1.50;99.90;;;;;;5093902;28;19963;-70
2023/01/27 01:14:17;;;;;;;;;;;-1.50;99.90;;;;;;5099601;28;19994;-70
2023/01/27 01:16:42;;;;;;;;;;;-1.50;99.90;;;;;;5110054;28;20328;-71
2023/01/27 01:19:08;;;;;;;;;;;-1.50;99.90;;;;;;5093744;28;19961;-70
2023/01/27 01:21:33;;;;;;;;;;;-1.50;99.90;;;;;;5093900;28;20272;-71
2023/01/27 01:23:59;;;;;;;;;;;-1.50;99.90;;;;;;5096305;28;20014;-70
2023/01/27 01:26:24;;;;;;;;;;;-1.50;99.90;;;;;;5112548;28;20483;-71
2023/01/27 01:28:50;;;;;;;;;;;-1.40;99.90;;;;;;5094030;28;19912;-70
2023/01/27 01:31:17;;;;;;;;;;;-1.50;99.90;;;;;;5105688;28;19920;-68
2023/01/27 01:33:42;;;;;;;;;;;-1.50;99.90;;;;;;5097141;28;19989;-70
2023/01/27 01:36:10;;;;;;;;;;;-1.40;99.90;;;;;;5114462;28;20363;-70
2023/01/27 01:38:35;;;;;;;;;;;-1.40;99.90;;;;;;5106442;28;19919;-71
2023/01/27 01:41:01;;;;;;;;;;;-1.50;99.90;;;;;;5113974;28;19912;-71
2023/01/27 01:43:27;;;;;;;;;;;-1.50;99.90;;;;;;5095101;28;19912;-68
2023/01/27 01:45:53;;;;;;;;;;;-1.50;99.90;;;;;;5093759;28;20398;-71
2023/01/27 01:48:42;;;;;;;;;;;-1.60;99.90;;;;;;5092667;28;19912;-70
2023/01/27 01:51:09;;;;;;;;;;;-1.50;99.90;;;;;;5090764;28;20007;-68
2023/01/27 01:53:55;;;;;;;;;;;-1.50;99.90;;;;;;5107546;28;20264;-70
2023/01/27 01:56:27;;;;;;;;;;;-1.50;99.90;;;;;;5087761;28;19955;-69
2023/01/27 01:58:54;;;;;;;;;;;-1.50;99.90;;;;;;5116894;28;19918;-71
2023/01/27 02:01:19;;;;;;;;;;;-1.50;99.90;;;;;;5112681;28;20026;-68
2023/01/27 02:03:48;;;;;;;;;;;-1.50;99.90;;;;;;5115005;28;19959;-70
2023/01/27 02:06:14;;;;;;;;;;;-1.50;99.90;;;;;;5116284;28;19912;-70
2023/01/27 02:08:44;;;;;;;;;;;-1.60;99.90;;;;;;5113573;28;20021;-69
2023/01/27 02:11:10;;;;;;;;;;;-1.50;99.90;;;;;;5117136;28;19965;-70
2023/01/27 02:13:36;;;;;;;;;;;-1.50;99.90;;;;;;5098475;28;19916;-71
2023/01/27 02:16:01;;;;;;;;;;;-1.50;99.90;;;;;;5098112;28;19913;-71
2023/01/27 02:18:28;;;;;;;;;;;-1.50;99.90;;;;;;5099091;28;20369;-69
2023/01/27 02:20:54;;;;;;;;;;;-1.50;99.90;;;;;;5096396;28;19916;-68
2023/01/27 02:23:38;;;;;;;;;;;-1.60;99.90;;;;;;5112108;28;19922;-70
2023/01/27 02:26:09;;;;;;;;;;;-1.60;99.90;;;;;;5113946;28;20260;-70
2023/01/27 02:28:35;;;;;;;;;;;-1.60;99.90;;;;;;5098449;28;19998;-70
2023/01/27 02:31:00;;;;;;;;;;;-1.60;99.90;;;;;;5095366;28;20007;-69
2023/01/27 02:33:26;;;;;;;;;;;-1.50;99.90;;;;;;5096804;28;19919;-70
2023/01/27 02:36:00;;;;;;;;;;;-1.50;99.90;;;;;;5104655;28;19918;-70
2023/01/27 02:38:33;;;;;;;;;;;-1.50;99.90;;;;;;5099661;28;20300;-69
2023/01/27 02:41:03;;;;;;;;;;;-1.50;99.90;;;;;;5106291;28;19916;-70
2023/01/27 02:43:29;;;;;;;;;;;-1.60;99.90;;;;;;5116385;28;19916;-70
2023/01/27 02:45:54;;;;;;;;;;;-1.60;99.90;;;;;;5104395;28;19915;-69
2023/01/27 02:48:20;;;;;;;;;;;-1.50;99.90;;;;;;5108375;28;19960;-69
2023/01/27 02:50:46;;;;;;;;;;;-1.60;99.90;;;;;;5116150;28;19912;-70
2023/01/27 02:53:11;;;;;;;;;;;-1.60;99.90;;;;;;5116124;28;20330;-70
2023/01/27 02:55:37;;;;;;;;;;;-1.60;99.90;;;;;;5109117;28;19912;-71
2023/01/27 02:58:03;;;;;;;;;;;-1.60;99.90;;;;;;5107702;28;19957;-70
2023/01/27 03:00:28;;;;;;;;;;;-1.60;99.90;;;;;;5114432;28;19987;-68
2023/01/27 03:02:54;;;;;;;;;;;-1.50;99.90;;;;;;5110104;28;19920;-69
2023/01/27 03:05:19;;;;;;;;;;;-1.50;99.90;;;;;;5096397;28;19926;-69
2023/01/27 03:07:45;;;;;;;;;;;-1.50;99.90;;;;;;5096275;28;20379;-69
2023/01/27 03:10:11;;;;;;;;;;;-1.50;99.90;;;;;;5096231;28;19951;-69
2023/01/27 03:12:36;;;;;;;;;;;-1.50;99.90;;;;;;5096013;28;19960;-70
2023/01/27 03:20:30;;;;;;;;;;;-1.50;99.90;;;;;;5095649;28;20287;-71
2023/01/27 03:22:56;;;;;;;;;;;-1.60;99.90;;;;;;5094479;28;19916;-68
2023/01/27 03:25:21;;;;;;;;;;;-1.60;99.90;;;;;;5094414;28;20275;-71
2023/01/27 03:27:47;;;;;;;;;;;-1.60;99.90;;;;;;5095737;28;19912;-68
2023/01/27 03:30:13;;;;;;;;;;;-1.50;99.90;;;;;;5096021;28;19919;-70
2023/01/27 03:32:45;;;;;;;;;;;-1.50;99.90;;;;;;5095551;28;20325;-70
2023/01/27 03:35:13;;;;;;;;;;;-1.50;99.90;;;;;;5096527;28;20363;-69
2023/01/27 03:48:40;;;;;;;;;;;-1.60;99.90;;;;;;5092813;28;19976;-69
2023/01/27 03:51:06;;;;;;;;;;;-1.60;99.90;;;;;;5094847;28;20010;-70
2023/01/27 03:53:32;;;;;;;;;;;-1.60;99.90;;;;;;5094024;28;19912;-70
2023/01/27 03:55:58;;;;;;;;;;;-1.60;99.90;;;;;;5094144;28;20371;-69
2023/01/27 03:58:25;;;;;;;;;;;-1.50;99.90;;;;;;5110658;28;19912;-71
2023/01/27 04:00:52;;;;;;;;;;;-1.60;99.90;;;;;;5114182;28;20344;-69
2023/01/27 04:08:49;;;;;;;;;;;-1.50;99.90;;;;;;5107501;28;19919;-70
2023/01/27 04:14:00;;;;;;;;;;;-1.60;99.90;;;;;;5094525;28;20049;-69
2023/01/27 04:16:29;;;;;;;;;;;-1.60;99.90;;;;;;5094427;28;20324;-68
2023/01/27 04:18:57;;;;;;;;;;;-1.60;99.90;;;;;;5094618;28;19916;-70
2023/01/27 04:21:24;;;;;;;;;;;-1.60;99.90;;;;;;5094583;28;20339;-68
2023/01/27 04:23:50;;;;;;;;;;;-1.60;99.90;;;;;;5094466;28;19918;-70
2023/01/27 04:26:16;;;;;;;;;;;-1.60;99.90;;;;;;5072861;28;20379;-70
2023/01/27 04:28:41;;;;;;;;;;;-1.60;99.90;;;;;;5091591;28;19915;-69
2023/01/27 04:31:07;;;;;;;;;;;-1.60;99.90;;;;;;5076043;28;19920;-69
2023/01/27 04:33:32;;;;;;;;;;;-1.60;99.90;;;;;;5094195;28;20011;-69
2023/01/27 04:35:58;;;;;;;;;;;-1.60;99.90;;;;;;5082635;28;20279;-70
2023/01/27 04:38:23;;;;;;;;;;;-1.60;99.90;;;;;;5087895;28;19955;-69
2023/01/27 04:40:49;;;;;;;;;;;-1.60;99.90;;;;;;5076153;28;19920;-69
2023/01/27 04:43:15;;;;;;;;;;;-1.60;99.90;;;;;;5086683;28;20346;-68
2023/01/27 04:45:40;;;;;;;;;;;-1.60;99.90;;;;;;5094374;28;19912;-68
2023/01/27 04:48:06;;;;;;;;;;;-1.60;99.90;;;;;;5080786;28;20256;-70
2023/01/27 04:50:32;;;;;;;;;;;-1.70;99.90;;;;;;5060589;28;19966;-69
2023/01/27 04:52:57;;;;;;;;;;;-1.60;99.90;;;;;;5074990;28;19924;-70
2023/01/27 04:55:23;;;;;;;;;;;-1.60;99.90;;;;;;5072783;28;19928;-69
2023/01/27 04:57:48;;;;;;;;;;;-1.60;99.90;;;;;;5077982;28;19916;-69
2023/01/27 05:00:14;;;;;;;;;;;-1.70;99.90;;;;;;5074133;28;20256;-68
2023/01/27 05:02:40;;;;;;;;;;;-1.70;99.90;;;;;;5090127;28;19943;-70
2023/01/27 05:05:05;;;;;;;;;;;-1.70;99.90;;;;;;5075223;28;20371;-69
2023/01/27 05:07:31;;;;;;;;;;;-1.60;99.90;;;;;;5091909;28;19916;-70
2023/01/27 05:09:57;;;;;;;;;;;-1.60;99.90;;;;;;5083363;28;19919;-69
2023/01/27 05:12:23;;;;;;;;;;;-1.60;99.90;;;;;;5086634;28;19924;-70
2023/01/27 05:14:48;;;;;;;;;;;-1.60;99.90;;;;;;5080368;28;19912;-70
2023/01/27 05:17:14;;;;;;;;;;;-1.60;99.90;;;;;;5076504;28;19913;-68
2023/01/27 05:19:39;;;;;;;;;;;-1.70;99.90;;;;;;5093348;28;20002;-70
2023/01/27 05:22:05;;;;;;;;;;;-1.70;99.90;;;;;;5092800;28;19912;-68
2023/01/27 05:24:31;;;;;;;;;;;-1.60;99.90;;;;;;5095866;28;19912;-69
2023/01/27 05:26:56;;;;;;;;;;;-1.70;99.90;;;;;;5096814;28;19977;-70
2023/01/27 05:29:22;;;;;;;;;;;-1.70;99.90;;;;;;5096828;28;19912;-70
2023/01/27 05:31:47;;;;;;;;;;;-1.70;99.90;;;;;;5097927;28;19927;-69
2023/01/27 05:34:13;;;;;;;;;;;-1.70;99.90;;;;;;5098370;28;19912;-68
2023/01/27 05:36:39;;;;;;;;;;;-1.70;99.90;;;;;;5096563;28;19916;-68
2023/01/27 05:39:04;;;;;;;;;;;-1.70;99.90;;;;;;5097848;28;19919;-69
2023/01/27 05:41:30;;;;;;;;;;;-1.70;99.90;;;;;;5096457;28;19912;-69
2023/01/27 05:43:56;;;;;;;;;;;-1.70;99.90;;;;;;5097413;28;19926;-68
2023/01/27 05:46:23;;;;;;;;;;;-1.70;99.90;;;;;;5097321;28;20464;-69
2023/01/27 05:48:50;;;;;;;;;;;-1.70;99.90;;;;;;5097760;28;19912;-68
2023/01/27 05:51:16;;;;;;;;;;;-1.70;99.90;;;;;;5096281;28;19916;-69
2023/01/27 05:53:42;;;;;;;;;;;-1.70;99.90;;;;;;5115302;28;19982;-68
2023/01/27 05:56:09;;;;;;;;;;;-1.70;99.90;;;;;;5115342;28;20283;-71
2023/01/27 05:58:35;;;;;;;;;;;-1.70;99.90;;;;;;5097601;28;19919;-67
2023/01/27 06:01:12;;;;;;;;;;;-1.70;99.90;;;;;;5097720;28;19912;-67
2023/01/27 06:03:38;;;;;;;;;;;-1.70;99.90;;;;;;5096769;28;19916;-69
2023/01/27 06:06:04;;;;;;;;;;;-1.70;99.90;;;;;;5102434;28;19912;-68
2023/01/27 06:08:30;;;;;;;;;;;-1.70;99.90;;;;;;5111946;28;19916;-70
2023/01/27 06:10:55;;;;;;;;;;;-1.60;99.90;;;;;;5108324;28;19911;-69
2023/01/27 06:13:22;;;;;;;;;;;-1.60;99.90;;;;;;5113213;28;19916;-70
2023/01/27 06:15:47;;;;;;;;;;;-1.70;99.90;;;;;;5097431;28;19919;-68
2023/01/27 06:18:13;;;;;;;;;;;-1.70;99.90;;;;;;5116612;27;19916;-67
2023/01/27 06:20:39;;;;;;;;;;;-1.70;99.90;;;;;;5093628;28;20000;-70
2023/01/27 06:23:06;;;;;;;;;;;-1.70;99.90;;;;;;5116736;28;19958;-71
2023/01/27 06:25:34;;;;;;;;;;;-1.70;99.90;;;;;;5099057;28;19981;-68
2023/01/27 06:28:00;;;;;;;;;;;-1.60;99.90;;;;;;5095371;28;20327;-69
2023/01/27 06:30:25;;;;;;;;;;;-1.60;99.90;;;;;;5096802;28;19969;-69
2023/01/27 06:32:51;;;;;;;;;;;-1.60;99.90;;;;;;5095732;28;19959;-69
2023/01/27 06:35:17;;;;;;;;;;;-1.60;99.90;;;;;;5109297;28;19911;-69
2023/01/27 06:37:42;;;;;;;;;;;-1.60;99.90;;;;;;5105864;28;20377;-70
2023/01/27 06:40:08;;;;;;;;;;;-1.60;99.90;;;;;;5105837;28;19919;-68
2023/01/27 06:42:34;;;;;;;;;;;-1.60;99.90;;;;;;5103421;28;19958;-70
2023/01/27 06:44:59;;;;;;;;;;;-1.60;99.90;;;;;;5097127;28;19948;-69
2023/01/27 06:47:25;;;;;;;;;;;-1.70;99.90;;;;;;5095344;28;20412;-70
2023/01/27 06:49:51;;;;;;;;;;;-1.70;99.90;;;;;;5110835;28;19916;-70
2023/01/27 06:52:16;;;;;;;;;;;-1.70;99.90;;;;;;5107802;28;19920;-69
2023/01/27 06:54:42;;;;;;;;;;;-1.70;99.90;;;;;;5095887;28;19956;-71
2023/01/27 06:57:08;;;;;;;;;;;-1.70;99.90;;;;;;5101451;28;19916;-70
2023/01/27 06:59:33;;;;;;;;;;;-1.70;99.90;;;;;;5093916;28;19912;-71
2023/01/27 07:01:59;;;;;;;;;;;-1.70;99.90;;;;;;5093530;28;19924;-71
2023/01/27 07:04:25;;;;;;;;;;;-1.70;99.90;;;;;;5098473;28;19922;-69
2023/01/27 07:06:50;;;;;;;;;;;-1.70;99.90;;;;;;5087918;28;20402;-71
2023/01/27 07:09:16;;;;;;;;;;;-1.70;99.90;;;;;;5104066;28;19919;-70
2023/01/27 07:11:41;;;;;;;;;;;-1.60;99.90;;;;;;5097136;28;19920;-71
2023/01/27 07:14:07;;;;;;;;;;;-1.70;99.90;;;;;;5095318;28;19912;-71
2023/01/27 07:16:33;;;;;;;;;;;-1.70;99.90;;;;;;5088241;28;19979;-73
2023/01/27 07:18:59;;;;;;;;;;;-1.70;99.90;;;;;;5081838;28;19969;-69
2023/01/27 07:21:25;;;;;;;;;;;-1.60;99.90;;;;;;5093193;28;19930;-71
2023/01/27 07:23:50;;;;;;;;;;;-1.70;99.90;;;;;;5102574;28;19912;-70
2023/01/27 07:26:16;;;;;;;;;;;-1.60;99.90;;;;;;5091234;28;19912;-71
2023/01/27 07:28:41;;;;;;;;;;;-1.60;99.90;;;;;;5102292;28;20264;-73
2023/01/27 07:31:07;;;;;;;;;;;-1.60;99.90;;;;;;5110169;28;19916;-70
2023/01/27 07:33:32;;;;;;;;;;;-1.60;99.90;;;;;;5102610;28;20014;-70
2023/01/27 07:35:58;;;;;;;;;;;-1.60;99.90;;;;;;5101459;28;19946;-74
2023/01/27 07:38:23;;;;;;;;;;;-1.60;99.90;;;;;;5093104;28;20358;-74
2023/01/27 07:40:49;;;;;;;;;;;-1.60;99.90;;;;;;5093968;28;19916;-70
2023/01/27 07:43:15;;;;;;;;;;;-1.70;99.90;;;;;;5094577;28;19912;-74
2023/01/27 07:45:40;;;;;;;;;;;-1.60;99.90;;;;;;5095088;28;20045;-72
2023/01/27 07:48:07;;;;;;;;;;;-1.70;99.90;;;;;;5098442;28;19908;-75
2023/01/27 07:50:33;;;;;;;;;;;-1.60;99.90;;;;;;5111589;28;20399;-74
2023/01/27 07:53:00;;;;;;;;;;;-1.60;99.90;;;;;;5112255;28;19920;-72
2023/01/27 07:55:25;;;;;;;;;;;-1.60;99.90;;;;;;5114333;28;19912;-74
2023/01/27 07:57:54;;;;;;;;;;;-1.60;99.90;;;;;;5097201;28;19992;-72
2023/01/27 08:00:20;;;;;;;;;;;-1.60;99.90;;;;;;5091694;28;19912;-74
2023/01/27 08:02:56;;;;;;;;;;;-1.60;99.90;;;;;;5105196;28;19911;-74
2023/01/27 08:05:22;;;;;;;;;;;-1.60;99.90;;;;;;5109102;28;20279;-74
2023/01/27 08:07:48;;;;;;;;;;;-1.60;99.90;;;;;;5096952;28;19998;-72
2023/01/27 08:10:14;;;;;;;;;;;-1.60;99.90;;;;;;5092036;28;19916;-73
2023/01/27 08:12:39;;;;;;;;;;;-1.60;99.90;;;;;;5091165;28;19927;-72
2023/01/27 08:15:05;;;;;;;;;;;-1.60;99.90;;;;;;5092532;28;20279;-73
2023/01/27 08:17:31;;;;;;;;;;;-1.60;99.90;;;;;;5092560;28;19916;-69
2023/01/27 08:19:56;;;;;;;;;;;-1.60;99.90;;;;;;5091386;28;19912;-73
2023/01/27 08:22:22;;;;;;;;;;;-1.60;99.90;;;;;;5093795;28;19912;-73
2023/01/27 08:24:48;;;;;;;;;;;-1.60;99.90;;;;;;5094335;28;19912;-68
2023/01/27 08:27:14;;;;;;;;;;;-1.60;99.90;;;;;;5091226;28;19919;-73
2023/01/27 08:29:40;;;;;;;;;;;-1.60;99.90;;;;;;5090711;28;19916;-70
2023/01/27 08:32:06;;;;;;;;;;;-1.60;99.90;;;;;;5089584;28;20019;-71
2023/01/27 08:34:32;;;;;;;;;;;-1.60;99.90;;;;;;5090730;28;19912;-70
2023/01/27 08:36:57;;;;;;;;;;;-1.60;99.90;;;;;;5091142;28;19913;-71
2023/01/27 08:39:23;;;;;;;;;;;-1.60;99.90;;;;;;5090230;28;19919;-70
2023/01/27 08:41:48;;;;;;;;;;;-1.60;99.90;;;;;;5093055;28;19961;-70
2023/01/27 08:44:14;;;;;;;;;;;-1.60;99.90;;;;;;5092662;28;19912;-73
2023/01/27 08:46:39;;;;;;;;;;;-1.60;99.90;;;;;;5092566;28;19918;-71
2023/01/27 08:49:05;;;;;;;;;;;-1.60;99.90;;;;;;5092447;28;20275;-72
2023/01/27 08:51:31;;;;;;;;;;;-1.60;99.90;;;;;;5092168;28;20007;-72
2023/01/27 08:53:56;;;;;;;;;;;-1.60;99.90;;;;;;5093587;28;19919;-68
2023/01/27 08:56:22;;;;;;;;;;;-1.60;99.90;;;;;;5081776;28;20352;-67
2023/01/27 08:58:51;;;;;;;;;;;-1.40;99.90;;;;;;5078629;28;20379;-71
2023/01/27 09:01:17;;;;;;;;;;;-1.30;99.90;;;;;;5093398;28;19912;-70
2023/01/27 09:03:42;;;;;;;;;;;-1.40;99.90;;;;;;5096874;28;20282;-69
2023/01/27 09:06:09;;;;;;;;;;;-1.50;99.90;;;;;;5092433;28;19913;-69
2023/01/27 09:08:34;;;;;;;;;;;-1.50;99.90;;;;;;5090358;28;19912;-69
2023/01/27 09:11:06;;;;;;;;;;;-1.50;99.90;;;;;;5090237;28;19913;-69
2023/01/27 09:13:36;;;;;;;;;;;-1.50;99.90;;;;;;5091456;28;19916;-69
2023/01/27 09:16:02;;;;;;;;;;;-1.50;99.90;;;;;;5075739;28;19917;-69
2023/01/27 09:18:30;;;;;;;;;;;-1.50;99.90;;;;;;5082471;28;19916;-70
2023/01/27 09:20:56;;;;;;;;;;;-1.40;99.90;;;;;;5091667;28;19919;-69
2023/01/27 09:23:22;;;;;;;;;;;-1.50;99.90;;;;;;5092567;28;19912;-69
2023/01/27 09:25:48;;;;;;;;;;;-1.40;99.90;;;;;;5091568;28;20271;-69
2023/01/27 09:28:16;;;;;;;;;;;-1.50;99.90;;;;;;5083697;28;19912;-70
2023/01/27 09:30:43;;;;;;;;;;;-1.50;99.90;;;;;;5087562;28;19916;-70
2023/01/27 09:33:09;;;;;;;;;;;-1.50;99.90;;;;;;5082849;28;19924;-69
2023/01/27 09:35:36;;;;;;;;;;;-1.50;99.90;;;;;;5083187;28;19912;-69
2023/01/27 09:38:03;;;;;;;;;;;-1.50;99.90;;;;;;5091711;28;19955;-69
2023/01/27 09:40:30;;;;;;;;;;;-1.50;99.90;;;;;;5090721;28;19912;-67
2023/01/27 09:42:59;;;;;;;;;;;-1.60;99.90;;;;;;5091607;28;19916;-70
2023/01/27 09:45:37;;;;;;;;;;;-1.50;99.90;;;;;;5088428;28;19962;-66
2023/01/27 09:48:08;;;;;;;;;;;-1.50;99.90;;;;;;5079688;28;19935;-70
2023/01/27 09:50:33;;;;;;;;;;;-1.60;99.90;;;;;;5080560;28;19966;-69
2023/01/27 09:53:18;;;;;;;;;;;-1.50;99.90;;;;;;5081492;28;19928;-70
2023/01/27 09:56:04;;;;;;;;;;;-1.50;99.90;;;;;;5085074;28;20250;-70
2023/01/27 09:58:29;;;;;;;;;;;-1.50;99.90;;;;;;5080428;28;19962;-67
2023/01/27 10:01:03;;;;;;;;;;;-1.50;99.90;;;;;;5089882;28;19913;-70
2023/01/27 10:03:44;;;;;;;;;;;-1.50;99.90;;;;;;5088311;28;19952;-75
2023/01/27 10:06:28;;;;;;;;;;;-1.50;99.90;;;;;;5092036;28;19995;-71
2023/01/27 10:09:00;;;;;;;;;;;-1.40;99.90;;;;;;5091793;28;19916;-70
2023/01/27 10:11:37;;;;;;;;;;;-1.50;99.90;;;;;;5093253;28;19916;-70
2023/01/27 10:14:21;;;;;;;;;;;-1.50;99.90;;;;;;5095155;28;19912;-69
2023/01/27 10:17:05;;;;;;;;;;;-1.40;99.90;;;;;;5095493;28;19912;-70
2023/01/27 10:19:40;;;;;;;;;;;-1.40;99.90;;;;;;5089648;28;19919;-70
2023/01/27 10:22:13;;;;;;;;;;;-1.40;99.90;;;;;;5075090;28;19920;-69
2023/01/27 10:24:55;;;;;;;;;;;-1.40;99.90;;;;;;5094191;28;19912;-69
2023/01/27 10:27:22;;;;;;;;;;;-1.40;99.90;;;;;;5095817;28;19951;-69
2023/01/27 10:29:56;;;;;;;;;;;-1.30;99.90;;;;;;5077308;28;19912;-69
2023/01/27 10:32:39;;;;;;;;;;;-1.40;99.90;;;;;;5095560;28;19927;-71
2023/01/27 10:35:05;;;;;;;;;;;-1.30;99.90;;;;;;5070833;28;20074;-71
2023/01/27 10:37:36;;;;;;;;;;;-1.30;99.90;;;;;;5056909;28;20391;-72
2023/01/27 10:40:11;;;;;;;;;;;-1.30;99.90;;;;;;5075877;28;19916;-71
2023/01/27 10:42:36;;;;;;;;;;;-1.20;99.90;;;;;;5094308;28;19919;-71
2023/01/27 10:45:14;;;;;;;;;;;-1.20;99.90;;;;;;5094781;28;19912;-71
2023/01/27 10:47:39;;;;;;;;;;;-1.20;99.90;;;;;;5094743;28;19962;-71
2023/01/27 10:50:08;;;;;;;;;;;-1.20;99.90;;;;;;5085766;28;20306;-72
2023/01/27 10:52:46;;;;;;;;;;;-1.20;99.90;;;;;;5076310;28;20279;-71
2023/01/27 10:55:27;;;;;;;;;;;-1.20;99.90;;;;;;5074749;28;19916;-70
2023/01/27 10:57:52;;;;;;;;;;;-1.20;99.90;;;;;;5056496;28;20275;-71
2023/01/27 11:00:29;;;;;;;;;;;-1.20;99.90;;;;;;5068425;28;19912;-70
2023/01/27 11:02:54;;;;;;;;;;;-1.10;99.90;;;;;;5077263;28;20011;-71
2023/01/27 11:05:23;;;;;;;;;;;-1.10;99.90;;;;;;5073281;28;19944;-70
2023/01/27 11:07:55;;;;;;;;;;;-1.10;99.90;;;;;;5093773;28;19981;-71
2023/01/27 11:10:21;;;;;;;;;;;-1.10;99.90;;;;;;5084261;28;19998;-70
2023/01/27 11:12:48;;;;;;;;;;;-1.10;99.90;;;;;;5095141;28;19920;-70
2023/01/27 11:15:28;;;;;;;;;;;-1.00;99.90;;;;;;5087312;28;19955;-70
2023/01/27 11:18:08;;;;;;;;;;;-1.00;99.90;;;;;;5083224;28;20003;-70
2023/01/27 11:20:34;;;;;;;;;;;-1.00;99.90;;;;;;5101060;28;19916;-70
2023/01/27 11:23:09;;;;;;;;;;;-1.00;99.90;;;;;;5095416;28;19912;-70
2023/01/27 11:25:43;;;;;;;;;;;-1.00;99.90;;;;;;5094269;28;20279;-69
2023/01/27 11:28:32;;;;;;;;;;;-0.80;99.90;;;;;;5096125;28;19919;-69
2023/01/27 11:31:09;;;;;;;;;;;-0.90;99.90;;;;;;5097971;27;19967;-68
2023/01/27 11:33:57;;;;;;;;;;;-0.90;99.90;;;;;;5093801;28;19916;-69
2023/01/27 11:36:23;;;;;;;;;;;-0.90;99.90;;;;;;5108802;28;19912;-69
2023/01/27 11:38:49;;;;;;;;;;;-1.00;99.90;;;;;;5114206;28;20007;-69
2023/01/27 11:41:15;;;;;;;;;;;-0.90;99.90;;;;;;5097656;28;19963;-69
2023/01/27 11:43:40;;;;;;;;;;;-0.90;99.90;;;;;;5105288;28;20041;-68
2023/01/27 11:46:09;;;;;;;;;;;-0.90;99.90;;;;;;5097302;28;19912;-69
2023/01/27 11:48:39;;;;;;;;;;;-0.90;99.90;;;;;;5097259;28;19920;-69
2023/01/27 11:51:11;;;;;;;;;;;-0.90;99.90;;;;;;5095005;28;20408;-69
2023/01/27 11:53:39;;;;;;;;;;;-0.90;99.90;;;;;;5099469;28;19912;-70
2023/01/27 11:56:07;;;;;;;;;;;-1.00;99.90;;;;;;5099790;28;20435;-69
2023/01/27 11:58:39;;;;;;;;;;;-0.90;99.90;;;;;;5094295;28;19912;-68
2023/01/27 12:01:10;;;;;;;;;;;-0.90;99.90;;;;;;5095417;28;19947;-67
2023/01/27 12:03:54;;;;;;;;;;;-0.90;99.90;;;;;;5089825;28;19912;-68
2023/01/27 12:06:49;;;;;;;;;;;-0.90;99.90;;;;;;5103296;28;19941;-67
2023/01/27 12:09:30;;;;;;;;;;;-1.00;99.90;;;;;;5090700;28;19912;-72
2023/01/27 12:12:10;;;;;;;;;;;-0.90;99.90;;;;;;5102319;28;20353;-68
2023/01/27 12:14:35;;;;;;;;;;;-0.90;99.90;;;;;;5101564;28;19943;-69
2023/01/27 12:17:02;;;;;;;;;;;-0.90;99.90;;;;;;5092773;28;19958;-69
2023/01/27 12:19:33;;;;;;;;;;;-0.90;99.90;;;;;;5092431;28;20367;-68
2023/01/27 12:22:06;;;;;;;;;;;-0.80;99.90;;;;;;5092679;28;19916;-68
2023/01/27 12:24:34;;;;;;;;;;;-0.90;99.90;;;;;;5092419;28;19951;-67
2023/01/27 12:27:00;;;;;;;;;;;-0.90;99.90;;;;;;5103117;28;19969;-68
2023/01/27 12:29:28;;;;;;;;;;;-0.90;99.90;;;;;;5091120;28;19919;-67
2023/01/27 12:31:56;;;;;;;;;;;-0.90;99.90;;;;;;5094708;28;20415;-67
2023/01/27 12:34:33;;;;;;;;;;;-0.90;99.90;;;;;;5099156;28;20351;-68
2023/01/27 12:36:59;;;;;;;;;;;-0.90;99.90;;;;;;5112743;28;19937;-68
2023/01/27 12:39:24;;;;;;;;;;;-0.90;99.90;;;;;;5095400;28;20352;-69
2023/01/27 12:41:51;;;;;;;;;;;-0.90;99.90;;;;;;5091029;28;19920;-68
2023/01/27 12:44:18;;;;;;;;;;;-0.80;99.90;;;;;;5085964;28;19912;-68
2023/01/27 12:47:02;;;;;;;;;;;-0.80;99.90;;;;;;5092183;28;19912;-68
2023/01/27 12:49:35;;;;;;;;;;;-0.70;99.90;;;;;;5088570;28;19955;-68
2023/01/27 12:52:02;;;;;;;;;;;-0.70;99.90;;;;;;5099892;28;19942;-68
2023/01/27 12:54:30;;;;;;;;;;;-0.70;99.90;;;;;;5070930;28;19923;-68
2023/01/27 12:57:00;;;;;;;;;;;-0.70;99.90;;;;;;5084846;28;20001;-68
2023/01/27 12:59:26;;;;;;;;;;;-0.70;99.90;;;;;;5092537;28;19989;-68
2023/01/27 13:01:56;;;;;;;;;;;-0.70;99.90;;;;;;5092541;28;19965;-69
2023/01/27 13:04:26;;;;;;;;;;;-0.70;99.90;;;;;;5093252;28;20321;-69
2023/01/27 13:07:00;;;;;;;;;;;-0.70;99.90;;;;;;5110714;28;19912;-68
2023/01/27 13:09:32;;;;;;;;;;;-0.70;99.90;;;;;;5084751;28;19912;-68
2023/01/27 13:12:01;;;;;;;;;;;-0.70;99.90;;;;;;5092080;28;19924;-68
2023/01/27 13:14:31;;;;;;;;;;;-0.70;99.90;;;;;;5094067;28;19919;-68
2023/01/27 13:16:58;;;;;;;;;;;-0.70;99.90;;;;;;5126835;28;19948;-69
2023/01/27 13:19:52;;;;;;;;;;;-0.60;99.90;;;;;;5092850;28;19952;-69
2023/01/27 13:22:21;;;;;;;;;;;-0.60;99.90;;;;;;5103609;28;19911;-69
2023/01/27 13:24:49;;;;;;;;;;;-0.70;99.90;;;;;;5095282;28;19959;-68
2023/01/27 13:27:17;;;;;;;;;;;-0.60;99.90;;;;;;5090624;28;20001;-70
2023/01/27 13:29:48;;;;;;;;;;;-0.60;99.90;;;;;;5091449;28;19951;-69
2023/01/27 13:32:19;;;;;;;;;;;-0.60;99.90;;;;;;5103262;28;19919;-68
2023/01/27 13:35:02;;;;;;;;;;;-0.50;99.90;;;;;;5105119;28;20365;-69
2023/01/27 13:37:33;;;;;;;;;;;-0.60;99.90;;;;;;5093249;28;20268;-68
2023/01/27 13:40:02;;;;;;;;;;;-0.60;99.90;;;;;;5099578;28;19923;-68
2023/01/27 13:42:35;;;;;;;;;;;-0.60;99.90;;;;;;5112652;28;19951;-68
2023/01/27 13:45:05;;;;;;;;;;;-0.60;99.90;;;;;;5112286;28;19912;-68
2023/01/27 13:47:47;;;;;;;;;;;-0.60;99.90;;;;;;5101711;28;19912;-68
2023/01/27 13:50:22;;;;;;;;;;;-0.60;99.90;;;;;;5107233;28;20011;-68
2023/01/27 13:52:52;;;;;;;;;;;-0.40;99.90;;;;;;5096310;28;19974;-68
2023/01/27 13:55:45;;;;;;;;;;;-0.50;99.90;;;;;;5098082;28;20287;-68
2023/01/27 13:58:20;;;;;;;;;;;-0.60;99.90;;;;;;5094237;28;20299;-68
2023/01/27 14:00:51;;;;;;;;;;;-0.60;99.90;;;;;;5095715;28;19920;-68
2023/01/27 14:03:16;;;;;;;;;;;-0.60;99.90;;;;;;5094479;28;19965;-68
2023/01/27 14:06:01;;;;;;;;;;;-0.10;99.90;;;;;;5095112;28;20296;-68
2023/01/27 14:08:36;;;;;;;;;;;-0.40;99.90;;;;;;5075135;28;19999;-68
2023/01/27 14:11:04;;;;;;;;;;;-0.50;99.90;;;;;;5090106;28;19977;-68
2023/01/27 14:13:48;;;;;;;;;;;-0.60;99.90;;;;;;5095381;28;20015;-69
2023/01/27 14:16:34;;;;;;;;;;;-0.60;99.90;;;;;;5095570;28;19951;-69
2023/01/27 14:19:14;;;;;;;;;;;-0.70;99.90;;;;;;5095098;28;19920;-69
2023/01/27 14:21:48;;;;;;;;;;;-0.70;99.90;;;;;;5093568;28;19942;-68
2023/01/27 14:24:32;;;;;;;;;;;-0.70;99.90;;;;;;5095709;28;19912;-68
2023/01/27 14:27:04;;;;;;;;;;;-0.70;99.90;;;;;;5087710;28;19913;-69
2023/01/27 14:29:48;;;;;;;;;;;-0.70;99.90;;;;;;5090381;28;20022;-68
2023/01/27 14:32:20;;;;;;;;;;;-0.70;99.90;;;;;;5075529;28;20058;-70
2023/01/27 14:34:52;;;;;;;;;;;-0.70;99.90;;;;;;5109400;28;20360;-69
2023/01/27 14:37:17;;;;;;;;;;;-0.60;99.90;;;;;;5076933;28;20387;-70
2023/01/27 14:39:48;;;;;;;;;;;-0.60;99.90;;;;;;5078340;28;19916;-69
2023/01/27 14:42:23;;;;;;;;;;;-0.60;99.90;;;;;;5095387;28;19921;-70
2023/01/27 14:44:55;;;;;;;;;;;-0.60;99.90;;;;;;5096627;28;19999;-69
2023/01/27 14:47:23;;;;;;;;;;;-0.50;99.90;;;;;;5096701;28;19927;-70
2023/01/27 14:49:55;;;;;;;;;;;-0.60;99.90;;;;;;5096149;28;19969;-69
2023/01/27 14:52:26;;;;;;;;;;;-0.60;99.90;;;;;;5096595;28;19920;-70
2023/01/27 14:54:56;;;;;;;;;;;-0.50;99.90;;;;;;5095417;28;19922;-70
2023/01/27 14:57:45;;;;;;;;;;;-0.50;99.90;;;;;;5095407;28;19916;-71
2023/01/27 15:00:24;;;;;;;;;;;-0.50;99.90;;;;;;5084646;28;19947;-69